Time;durP1;ratioP1;P1;durP2;ratioP2;P2;SDS_P1;SDS_P2;PMS_P1;PMS_P2;Temp;Humidity;BMP_temperature;BMP_pressure;BME280_temperature;BME280_humidity;BME280_pressure;Samples;Min_cycle;Max_cycle;Signal;HPM_P1;HPM_P2
2022/05/08 00:02:07;;;;;;;12.13;3.22;;;;;;;;;;6340800;22;20146;-58
2022/05/08 00:04:33;;;;;;;9.52;2.90;;;;;;;;;;6340906;22;20157;-59
2022/05/08 00:06:59;;;;;;;11.13;2.70;;;;;;;;;;6340383;22;20142;-58
2022/05/08 00:09:25;;;;;;;11.93;2.60;;;;;;;;;;6340900;22;20226;-58
2022/05/08 00:11:52;;;;;;;10.25;2.72;;;;;;;;;;6340791;22;20142;-59
2022/05/08 00:14:18;;;;;;;10.05;2.72;;;;;;;;;;6340529;22;20177;-59
2022/05/08 00:16:44;;;;;;;9.15;2.47;;;;;;;;;;6340856;22;20164;-59
2022/05/08 00:19:10;;;;;;;7.13;2.60;;;;;;;;;;6340650;22;20138;-60
2022/05/08 00:21:36;;;;;;;10.10;2.67;;;;;;;;;;6340996;22;20146;-59
2022/05/08 00:24:02;;;;;;;8.50;2.53;;;;;;;;;;6340473;22;20138;-59
2022/05/08 00:26:28;;;;;;;10.02;2.65;;;;;;;;;;6340685;22;20222;-60
2022/05/08 00:28:55;;;;;;;11.20;2.67;;;;;;;;;;6340315;22;20149;-59
2022/05/08 00:31:21;;;;;;;12.98;3.00;;;;;;;;;;6340134;22;20457;-59
2022/05/08 00:33:47;;;;;;;12.48;2.92;;;;;;;;;;6340135;22;20158;-58
2022/05/08 00:36:13;;;;;;;9.70;2.45;;;;;;;;;;6340644;22;20146;-59
2022/05/08 00:38:39;;;;;;;8.55;2.53;;;;;;;;;;6340132;22;20410;-59
2022/05/08 00:41:07;;;;;;;11.35;2.40;;;;;;;;;;6340009;22;20173;-59
2022/05/08 00:43:34;;;;;;;11.02;2.47;;;;;;;;;;6340302;22;20142;-58
2022/05/08 00:46:10;;;;;;;10.10;2.70;;;;;;;;;;6340750;22;20241;-59
2022/05/08 00:48:36;;;;;;;11.43;2.88;;;;;;;;;;6340490;22;20127;-58
2022/05/08 00:51:04;;;;;;;8.35;2.60;;;;;;;;;;6340583;22;20174;-59
2022/05/08 00:53:33;;;;;;;7.15;2.50;;;;;;;;;;6340237;22;20212;-59
2022/05/08 00:55:59;;;;;;;11.50;2.70;;;;;;;;;;6340412;22;20145;-59
2022/05/08 00:58:25;;;;;;;8.27;2.03;;;;;;;;;;6340357;22;20184;-59
2022/05/08 01:00:51;;;;;;;12.00;2.13;;;;;;;;;;6340614;22;20150;-59
2022/05/08 01:03:17;;;;;;;10.30;2.53;;;;;;;;;;6340134;22;20134;-56
2022/05/08 01:05:43;;;;;;;6.68;2.40;;;;;;;;;;6340239;22;20144;-59
2022/05/08 01:08:10;;;;;;;6.53;2.15;;;;;;;;;;6340202;22;20217;-57
2022/05/08 01:10:36;;;;;;;8.50;2.25;;;;;;;;;;6340491;22;20145;-59
2022/05/08 01:13:03;;;;;;;6.32;2.13;;;;;;;;;;6339890;22;20195;-59
2022/05/08 01:15:29;;;;;;;8.05;2.08;;;;;;;;;;6340222;22;20150;-59
2022/05/08 01:17:56;;;;;;;12.27;2.47;;;;;;;;;;6340781;22;20162;-59
2022/05/08 01:20:22;;;;;;;11.38;2.28;;;;;;;;;;6340406;22;20146;-59
2022/05/08 01:22:48;;;;;;;9.00;2.10;;;;;;;;;;6339968;22;20173;-57
2022/05/08 01:25:14;;;;;;;7.35;2.20;;;;;;;;;;6340033;22;20138;-59
2022/05/08 01:27:40;;;;;;;9.80;2.30;;;;;;;;;;6340312;22;20142;-57
2022/05/08 01:30:06;;;;;;;8.27;2.17;;;;;;;;;;6340239;22;20142;-58
2022/05/08 01:32:32;;;;;;;7.15;2.35;;;;;;;;;;6339862;22;20158;-59
2022/05/08 01:34:58;;;;;;;7.28;2.22;;;;;;;;;;6339661;22;20205;-58
2022/05/08 01:37:24;;;;;;;9.48;2.72;;;;;;;;;;6339901;22;20233;-61
2022/05/08 01:39:50;;;;;;;7.88;2.08;;;;;;;;;;6339700;22;20202;-58
2022/05/08 01:42:16;;;;;;;7.32;2.28;;;;;;;;;;6339843;22;20217;-59
2022/05/08 01:44:42;;;;;;;7.47;2.10;;;;;;;;;;6339425;22;20572;-61
2022/05/08 01:49:53;;;;;;;7.22;1.83;;;;;;;;;;6339812;22;20207;-60
2022/05/08 01:52:19;;;;;;;6.80;2.03;;;;;;;;;;6340087;22;20440;-61
2022/05/08 01:54:44;;;;;;;10.65;2.20;;;;;;;;;;6339432;22;20165;-60
2022/05/08 01:57:10;;;;;;;8.30;2.10;;;;;;;;;;6339717;22;20542;-60
2022/05/08 01:59:36;;;;;;;7.97;2.00;;;;;;;;;;6339543;22;20134;-57
2022/05/08 02:02:03;;;;;;;8.65;1.80;;;;;;;;;;6339634;22;20446;-61
2022/05/08 02:04:29;;;;;;;10.20;2.15;;;;;;;;;;6339424;22;20144;-59
2022/05/08 02:06:55;;;;;;;6.75;1.92;;;;;;;;;;6339937;22;20142;-60
2022/05/08 02:09:21;;;;;;;5.68;2.05;;;;;;;;;;6340258;22;20189;-59
2022/05/08 02:11:47;;;;;;;5.53;2.00;;;;;;;;;;6340083;22;20165;-59
2022/05/08 02:14:13;;;;;;;9.45;1.90;;;;;;;;;;6339516;22;20169;-59
2022/05/08 02:16:39;;;;;;;7.88;1.90;;;;;;;;;;6339809;22;20138;-59
2022/05/08 02:19:05;;;;;;;9.15;2.17;;;;;;;;;;6339675;22;20135;-60
2022/05/08 02:21:31;;;;;;;8.05;2.10;;;;;;;;;;6339838;22;20148;-56
2022/05/08 02:23:57;;;;;;;7.97;1.90;;;;;;;;;;6339348;22;20149;-59
2022/05/08 02:26:23;;;;;;;6.05;1.98;;;;;;;;;;6339797;22;20415;-60
2022/05/08 02:28:49;;;;;;;7.05;1.65;;;;;;;;;;6339843;22;20153;-60
2022/05/08 02:31:14;;;;;;;6.75;1.80;;;;;;;;;;6339488;22;20158;-59
2022/05/08 02:33:40;;;;;;;5.53;1.75;;;;;;;;;;6339462;22;20570;-59
2022/05/08 02:36:06;;;;;;;7.30;2.17;;;;;;;;;;6340004;22;20142;-58
2022/05/08 02:38:33;;;;;;;9.23;1.92;;;;;;;;;;6339649;22;20501;-60
2022/05/08 02:40:59;;;;;;;6.43;2.13;;;;;;;;;;6339653;22;20205;-60
2022/05/08 02:43:25;;;;;;;5.22;1.98;;;;;;;;;;6339219;22;20468;-60
2022/05/08 02:45:51;;;;;;;8.77;1.85;;;;;;;;;;6339089;22;20149;-60
2022/05/08 02:48:17;;;;;;;5.75;1.85;;;;;;;;;;6339258;22;20142;-59
2022/05/08 02:50:43;;;;;;;6.53;1.65;;;;;;;;;;6339103;22;20492;-59
2022/05/08 02:53:09;;;;;;;5.72;1.90;;;;;;;;;;6339782;22;20148;-59
2022/05/08 02:58:34;;;;;;;7.53;1.95;;;;;;;;;;6341282;22;20141;-60
2022/05/08 03:01:01;;;;;;;9.88;1.90;;;;;;;;;;6341101;22;20126;-60
2022/05/08 03:03:27;;;;;;;10.50;1.90;;;;;;;;;;6341146;22;20143;-59
2022/05/08 03:05:53;;;;;;;9.80;2.13;;;;;;;;;;6340962;22;20225;-59
2022/05/08 03:08:20;;;;;;;10.38;2.38;;;;;;;;;;6341075;22;20138;-60
2022/05/08 03:13:35;;;;;;;6.43;2.17;;;;;;;;;;6340974;22;20169;-60
2022/05/08 03:16:01;;;;;;;7.88;2.15;;;;;;;;;;6341382;22;20437;-59
2022/05/08 03:18:27;;;;;;;6.38;2.00;;;;;;;;;;6341292;22;20217;-59
2022/05/08 03:20:53;;;;;;;5.93;1.77;;;;;;;;;;6341283;22;20173;-59
2022/05/08 03:23:19;;;;;;;10.57;2.33;;;;;;;;;;6342032;22;20232;-59
2022/05/08 03:25:45;;;;;;;9.63;2.15;;;;;;;;;;6341817;22;20149;-59
2022/05/08 03:28:13;;;;;;;10.82;2.38;;;;;;;;;;6340918;22;20418;-57
2022/05/08 03:30:39;;;;;;;9.25;1.90;;;;;;;;;;6340953;22;20165;-58
2022/05/08 03:33:06;;;;;;;7.28;1.95;;;;;;;;;;6341460;22;20122;-59
2022/05/08 03:35:33;;;;;;;10.00;1.85;;;;;;;;;;6340705;22;20558;-59
2022/05/08 03:37:58;;;;;;;6.47;1.83;;;;;;;;;;6341064;22;20566;-59
2022/05/08 03:40:26;;;;;;;7.15;2.10;;;;;;;;;;6340631;22;20195;-59
2022/05/08 03:42:52;;;;;;;11.32;1.92;;;;;;;;;;6341005;22;20176;-60
2022/05/08 03:45:18;;;;;;;9.82;1.90;;;;;;;;;;6340655;22;20453;-60
2022/05/08 03:47:44;;;;;;;8.27;1.90;;;;;;;;;;6340733;22;20431;-60
2022/05/08 03:50:10;;;;;;;6.65;2.28;;;;;;;;;;6340797;22;20230;-60
2022/05/08 03:52:36;;;;;;;11.90;2.13;;;;;;;;;;6340990;22;20146;-60
2022/05/08 03:55:05;;;;;;;7.82;1.83;;;;;;;;;;6340551;22;20162;-59
2022/05/08 03:57:31;;;;;;;9.35;1.92;;;;;;;;;;6340755;22;20173;-60
2022/05/08 03:59:57;;;;;;;10.77;2.15;;;;;;;;;;6340994;22;20138;-60
2022/05/08 04:02:23;;;;;;;6.57;2.28;;;;;;;;;;6340774;22;20453;-60
2022/05/08 04:04:48;;;;;;;5.95;1.70;;;;;;;;;;6340530;22;20171;-60
2022/05/08 04:07:14;;;;;;;9.05;2.10;;;;;;;;;;6340263;22;20211;-60
2022/05/08 04:09:40;;;;;;;11.95;2.30;;;;;;;;;;6340548;22;20221;-60
2022/05/08 04:12:06;;;;;;;9.50;2.20;;;;;;;;;;6340703;22;20217;-59
2022/05/08 04:14:32;;;;;;;7.68;1.95;;;;;;;;;;6340360;22;20212;-60
2022/05/08 04:16:59;;;;;;;11.52;2.17;;;;;;;;;;6340340;22;20138;-60
2022/05/08 04:19:25;;;;;;;8.45;2.15;;;;;;;;;;6340603;22;20146;-60
2022/05/08 04:24:16;;;;;;;8.80;2.03;;;;;;;;;;6340506;22;20631;-60
2022/05/08 04:24:37;;;;;;;6.53;1.85;;;;;;;;;;6340571;22;20550;-60
2022/05/08 04:27:03;;;;;;;7.18;1.92;;;;;;;;;;6340507;22;20142;-60
2022/05/08 04:29:29;;;;;;;7.85;1.85;;;;;;;;;;6340319;22;20142;-60
2022/05/08 04:31:54;;;;;;;7.28;1.92;;;;;;;;;;6338779;22;20222;-60
2022/05/08 04:34:20;;;;;;;8.18;1.60;;;;;;;;;;6340063;22;20165;-60
2022/05/08 04:36:46;;;;;;;8.48;1.73;;;;;;;;;;6340146;22;20169;-60
2022/05/08 04:39:13;;;;;;;8.35;1.80;;;;;;;;;;6340217;22;20135;-60
2022/05/08 04:41:38;;;;;;;7.93;1.90;;;;;;;;;;6340139;22;20553;-60
2022/05/08 04:44:05;;;;;;;10.45;2.15;;;;;;;;;;6340698;22;20142;-59
2022/05/08 04:46:31;;;;;;;9.43;1.92;;;;;;;;;;6340428;22;20215;-60
2022/05/08 04:48:57;;;;;;;6.15;1.60;;;;;;;;;;6340432;22;20172;-59
2022/05/08 04:51:23;;;;;;;7.53;1.90;;;;;;;;;;6340358;22;20542;-60
2022/05/08 04:53:49;;;;;;;7.07;1.70;;;;;;;;;;6340298;22;20268;-60
2022/05/08 04:56:15;;;;;;;8.48;1.85;;;;;;;;;;6339958;22;20134;-60
2022/05/08 04:58:41;;;;;;;3.40;1.40;;;;;;;;;;6340446;22;20155;-60
2022/05/08 05:01:07;;;;;;;10.43;1.77;;;;;;;;;;6340569;22;20143;-60
2022/05/08 05:03:33;;;;;;;8.80;1.92;;;;;;;;;;6340035;22;20153;-60
2022/05/08 05:05:58;;;;;;;9.43;1.73;;;;;;;;;;6340303;22;20146;-60
2022/05/08 05:08:24;;;;;;;4.72;1.65;;;;;;;;;;6340074;22;20138;-60
2022/05/08 05:10:50;;;;;;;7.38;2.05;;;;;;;;;;6340283;22;20145;-60
2022/05/08 05:13:16;;;;;;;7.32;1.80;;;;;;;;;;6339869;22;20150;-60
2022/05/08 05:15:42;;;;;;;9.82;2.30;;;;;;;;;;6339906;22;20154;-60
2022/05/08 05:18:08;;;;;;;11.93;1.67;;;;;;;;;;6339527;22;20168;-60
2022/05/08 05:20:34;;;;;;;10.68;2.10;;;;;;;;;;6340135;22;20138;-59
2022/05/08 05:23:01;;;;;;;9.55;1.88;;;;;;;;;;6339788;22;20148;-60
2022/05/08 05:25:27;;;;;;;8.95;2.17;;;;;;;;;;6340229;22;20153;-60
2022/05/08 05:27:53;;;;;;;14.55;2.38;;;;;;;;;;6339773;22;20422;-60
2022/05/08 05:30:19;;;;;;;10.00;1.80;;;;;;;;;;6339821;22;20753;-60
2022/05/08 05:32:45;;;;;;;6.57;1.83;;;;;;;;;;6339549;22;20158;-59
2022/05/08 05:35:11;;;;;;;8.82;2.15;;;;;;;;;;6339873;22;20162;-59
2022/05/08 05:37:37;;;;;;;9.55;2.28;;;;;;;;;;6339723;22;20398;-60
2022/05/08 05:40:04;;;;;;;5.30;2.10;;;;;;;;;;6340364;22;20150;-59
2022/05/08 05:42:31;;;;;;;10.68;2.13;;;;;;;;;;6340490;22;20138;-59
2022/05/08 05:44:57;;;;;;;5.85;1.80;;;;;;;;;;6341484;22;20555;-61
2022/05/08 05:50:08;;;;;;;5.65;1.85;;;;;;;;;;6339873;22;20234;-60
2022/05/08 05:52:35;;;;;;;8.73;1.70;;;;;;;;;;6339542;22;20148;-59
2022/05/08 05:55:03;;;;;;;6.68;1.90;;;;;;;;;;6339424;22;20635;-60
2022/05/08 05:57:29;;;;;;;7.75;1.80;;;;;;;;;;6339843;22;20142;-60
2022/05/08 05:59:54;;;;;;;5.05;1.50;;;;;;;;;;6339643;22;20166;-60
2022/05/08 06:02:20;;;;;;;7.63;1.98;;;;;;;;;;6339756;22;20145;-60
2022/05/08 06:04:46;;;;;;;8.15;2.00;;;;;;;;;;6339635;22;20627;-60
2022/05/08 06:07:12;;;;;;;8.13;2.40;;;;;;;;;;6339863;22;20142;-60
2022/05/08 06:09:38;;;;;;;9.57;2.50;;;;;;;;;;6339494;22;20438;-60
2022/05/08 06:12:04;;;;;;;8.65;2.83;;;;;;;;;;6339972;22;20153;-59
2022/05/08 06:14:30;;;;;;;6.57;1.58;;;;;;;;;;6339968;22;20158;-59
2022/05/08 06:16:56;;;;;;;7.70;2.00;;;;;;;;;;6339361;22;20191;-59
2022/05/08 06:19:22;;;;;;;6.13;1.50;;;;;;;;;;6339453;22;20139;-60
2022/05/08 06:21:48;;;;;;;5.18;1.73;;;;;;;;;;6339466;22;20137;-60
2022/05/08 06:24:14;;;;;;;10.18;1.90;;;;;;;;;;6339796;22;20556;-62
2022/05/08 06:26:40;;;;;;;5.35;1.80;;;;;;;;;;6339292;22;20600;-62
2022/05/08 06:29:06;;;;;;;10.07;1.80;;;;;;;;;;6339309;22;20143;-62
2022/05/08 06:31:31;;;;;;;9.70;2.22;;;;;;;;;;6339239;22;20158;-62
2022/05/08 06:33:58;;;;;;;6.63;1.88;;;;;;;;;;6339287;22;20169;-64
2022/05/08 06:36:26;;;;;;;4.97;1.88;;;;;;;;;;6339176;22;20149;-60
2022/05/08 06:38:51;;;;;;;7.40;1.92;;;;;;;;;;6339740;22;20213;-62
2022/05/08 06:41:17;;;;;;;7.10;1.85;;;;;;;;;;6339274;22;20162;-61
2022/05/08 06:43:44;;;;;;;8.23;1.85;;;;;;;;;;6339078;22;20221;-62
2022/05/08 06:46:11;;;;;;;8.60;2.45;;;;;;;;;;6339672;22;20142;-62
2022/05/08 06:48:38;;;;;;;7.85;2.22;;;;;;;;;;6339142;22;20165;-62
2022/05/08 06:51:04;;;;;;;6.35;1.75;;;;;;;;;;6339338;22;20490;-62
2022/05/08 06:53:31;;;;;;;10.55;2.33;;;;;;;;;;6339070;22;20445;-62
2022/05/08 06:55:57;;;;;;;8.30;1.88;;;;;;;;;;6339326;22;20217;-62
2022/05/08 06:58:24;;;;;;;9.02;1.90;;;;;;;;;;6339466;22;20515;-62
2022/05/08 07:03:36;;;;;;;8.13;2.47;;;;;;;;;;6339472;22;20442;-60
2022/05/08 07:06:02;;;;;;;7.00;1.85;;;;;;;;;;6339524;22;20142;-61
2022/05/08 07:08:28;;;;;;;8.65;2.22;;;;;;;;;;6339512;22;20174;-61
2022/05/08 07:10:54;;;;;;;8.95;1.83;;;;;;;;;;6339684;22;20143;-60
2022/05/08 07:13:23;;;;;;;9.05;2.00;;;;;;;;;;6339003;22;20142;-60
2022/05/08 07:15:49;;;;;;;6.72;1.92;;;;;;;;;;6339947;22;20235;-61
2022/05/08 07:18:15;;;;;;;7.10;2.50;;;;;;;;;;6339777;22;20162;-61
2022/05/08 07:20:41;;;;;;;7.72;2.20;;;;;;;;;;6340012;22;20138;-61
2022/05/08 07:23:07;;;;;;;7.10;2.13;;;;;;;;;;6339966;22;20566;-61
2022/05/08 07:25:33;;;;;;;7.53;2.30;;;;;;;;;;6339342;22;20229;-61
2022/05/08 07:27:58;;;;;;;8.07;2.20;;;;;;;;;;6339403;22;20142;-61
2022/05/08 07:30:24;;;;;;;7.80;2.22;;;;;;;;;;6339140;22;20149;-60
2022/05/08 07:32:50;;;;;;;7.80;2.00;;;;;;;;;;6339422;22;20456;-61
2022/05/08 07:38:01;;;;;;;4.07;1.85;;;;;;;;;;6339062;22;20170;-62
2022/05/08 07:40:29;;;;;;;10.38;2.40;;;;;;;;;;6339208;22;20145;-62
2022/05/08 07:42:54;;;;;;;9.68;2.75;;;;;;;;;;6340777;22;20413;-61
2022/05/08 07:45:21;;;;;;;6.03;1.85;;;;;;;;;;6340953;22;20145;-62
2022/05/08 07:47:47;;;;;;;10.63;2.35;;;;;;;;;;6340544;22;20211;-62
2022/05/08 07:50:13;;;;;;;8.95;1.90;;;;;;;;;;6340603;22;20558;-62
2022/05/08 07:52:39;;;;;;;10.05;2.58;;;;;;;;;;6340578;22;20149;-61
2022/05/08 07:55:07;;;;;;;8.35;2.53;;;;;;;;;;6340713;22;20166;-62
2022/05/08 07:57:33;;;;;;;8.50;2.55;;;;;;;;;;6340745;22;20241;-62
2022/05/08 07:59:59;;;;;;;12.88;2.47;;;;;;;;;;6340489;22;20226;-62
2022/05/08 08:02:25;;;;;;;8.43;2.15;;;;;;;;;;6340446;22;20226;-62
2022/05/08 08:04:51;;;;;;;9.23;2.05;;;;;;;;;;6340807;22;20146;-62
2022/05/08 08:07:17;;;;;;;7.85;2.45;;;;;;;;;;6340634;22;20170;-62
2022/05/08 08:09:43;;;;;;;6.65;2.22;;;;;;;;;;6340379;22;20150;-61
2022/05/08 08:12:09;;;;;;;8.50;2.13;;;;;;;;;;6340270;22;20142;-62
2022/05/08 08:14:35;;;;;;;10.70;2.42;;;;;;;;;;6340177;22;20165;-60
2022/05/08 08:17:01;;;;;;;10.73;2.35;;;;;;;;;;6340360;22;20223;-61
2022/05/08 08:19:27;;;;;;;6.13;2.20;;;;;;;;;;6340351;22;20135;-61
2022/05/08 08:21:53;;;;;;;8.95;2.35;;;;;;;;;;6340325;22;20134;-62
2022/05/08 08:24:19;;;;;;;10.73;2.13;;;;;;;;;;6340652;22;20217;-60
2022/05/08 08:26:45;;;;;;;9.65;2.15;;;;;;;;;;6340640;22;20439;-61
2022/05/08 08:29:11;;;;;;;8.45;2.22;;;;;;;;;;6340423;22;20158;-62
2022/05/08 08:31:37;;;;;;;15.02;2.63;;;;;;;;;;6340291;22;20339;-62
2022/05/08 08:34:03;;;;;;;9.30;2.03;;;;;;;;;;6340192;22;20295;-62
2022/05/08 08:36:29;;;;;;;7.32;1.90;;;;;;;;;;6340613;22;20166;-60
2022/05/08 08:38:54;;;;;;;8.00;1.90;;;;;;;;;;6340323;22;20134;-62
2022/05/08 08:41:22;;;;;;;12.88;2.63;;;;;;;;;;6340211;22;20570;-62
2022/05/08 08:49:24;;;;;;;7.07;2.40;;;;;;;;;;6340268;22;20191;-62
2022/05/08 08:51:51;;;;;;;11.40;2.45;;;;;;;;;;6340457;22;20146;-62
2022/05/08 08:54:19;;;;;;;10.32;2.03;;;;;;;;;;6339986;22;20210;-61
2022/05/08 08:56:45;;;;;;;8.30;2.20;;;;;;;;;;6340424;22;20275;-61
2022/05/08 08:59:11;;;;;;;7.45;2.05;;;;;;;;;;6340286;22;20149;-62
2022/05/08 09:01:41;;;;;;;10.70;2.60;;;;;;;;;;6340316;22;20138;-61
2022/05/08 09:04:08;;;;;;;7.88;2.13;;;;;;;;;;6340330;22;20208;-60
2022/05/08 09:06:37;;;;;;;8.55;2.15;;;;;;;;;;6340469;22;20142;-61
2022/05/08 09:09:21;;;;;;;9.05;2.22;;;;;;;;;;6340081;22;20573;-62
2022/05/08 09:11:47;;;;;;;8.48;2.45;;;;;;;;;;6340151;22;20470;-61
2022/05/08 09:14:26;;;;;;;7.63;2.20;;;;;;;;;;6339873;22;20158;-62
2022/05/08 09:16:56;;;;;;;8.25;1.90;;;;;;;;;;6340160;22;20133;-62
2022/05/08 09:19:34;;;;;;;10.48;2.35;;;;;;;;;;6340256;22;20160;-61
2022/05/08 09:22:01;;;;;;;8.48;2.10;;;;;;;;;;6340380;22;20161;-63
2022/05/08 09:24:26;;;;;;;13.45;2.30;;;;;;;;;;6340169;22;20557;-62
2022/05/08 09:27:08;;;;;;;10.18;2.08;;;;;;;;;;6339762;22;20199;-62
2022/05/08 09:29:34;;;;;;;8.80;1.90;;;;;;;;;;6340122;22;20160;-62
2022/05/08 09:32:00;;;;;;;7.93;2.10;;;;;;;;;;6339629;22;20158;-62
2022/05/08 09:34:26;;;;;;;8.10;2.20;;;;;;;;;;6339598;22;20162;-61
2022/05/08 09:37:08;;;;;;;8.43;2.45;;;;;;;;;;6339721;22;20138;-62
2022/05/08 09:39:34;;;;;;;8.43;2.10;;;;;;;;;;6339751;22;20146;-62
2022/05/08 09:41:59;;;;;;;10.15;2.55;;;;;;;;;;6339554;22;20509;-61
2022/05/08 09:44:25;;;;;;;9.35;3.53;;;;;;;;;;6340081;22;20225;-64
2022/05/08 09:46:51;;;;;;;8.65;2.30;;;;;;;;;;6339949;22;20599;-63
2022/05/08 09:49:21;;;;;;;8.02;2.20;;;;;;;;;;6339907;22;20154;-62
2022/05/08 09:51:48;;;;;;;8.05;2.20;;;;;;;;;;6339546;22;20138;-62
2022/05/08 09:54:15;;;;;;;6.80;2.10;;;;;;;;;;6339370;22;20173;-62
2022/05/08 09:56:42;;;;;;;7.13;2.05;;;;;;;;;;6340035;22;20142;-62
2022/05/08 09:59:10;;;;;;;10.02;2.60;;;;;;;;;;6339604;22;20414;-62
2022/05/08 10:01:38;;;;;;;7.68;2.00;;;;;;;;;;6340156;22;20158;-62
2022/05/08 10:04:03;;;;;;;8.00;1.90;;;;;;;;;;6339565;22;20161;-62
2022/05/08 10:06:32;;;;;;;7.68;2.20;;;;;;;;;;6339481;22;20166;-62
2022/05/08 10:13:53;;;;;;;7.20;2.30;;;;;;;;;;6339545;22;20138;-61
2022/05/08 10:14:30;;;;;;;10.10;2.38;;;;;;;;;;6339209;22;20169;-62
2022/05/08 10:17:02;;;;;;;8.70;1.90;;;;;;;;;;6339585;22;20245;-63
2022/05/08 10:19:28;;;;;;;7.60;1.88;;;;;;;;;;6339114;22;20134;-62
2022/05/08 10:21:57;;;;;;;7.03;2.40;;;;;;;;;;6339659;22;20134;-62
2022/05/08 10:24:33;;;;;;;9.75;3.08;;;;;;;;;;6339613;22;20205;-62
2022/05/08 10:27:09;;;;;;;7.30;2.10;;;;;;;;;;6339543;22;20150;-62
2022/05/08 10:29:35;;;;;;;11.70;3.28;;;;;;;;;;6339495;22;20157;-62
2022/05/08 10:32:01;;;;;;;10.73;2.55;;;;;;;;;;6339272;22;20448;-62
2022/05/08 10:34:34;;;;;;;8.40;1.83;;;;;;;;;;6339389;22;20166;-62
2022/05/08 10:37:12;;;;;;;7.05;2.40;;;;;;;;;;6339595;22;20138;-62
2022/05/08 10:39:42;;;;;;;8.13;2.28;;;;;;;;;;6339772;22;20161;-61
2022/05/08 10:42:23;;;;;;;10.57;2.28;;;;;;;;;;6339104;22;20146;-61
2022/05/08 10:44:50;;;;;;;7.90;2.15;;;;;;;;;;6339003;22;20152;-62
2022/05/08 10:47:34;;;;;;;12.38;2.83;;;;;;;;;;6339334;22;20138;-61
2022/05/08 10:50:04;;;;;;;10.98;2.25;;;;;;;;;;6339264;22;20552;-61
2022/05/08 10:52:31;;;;;;;7.75;2.30;;;;;;;;;;6339376;22;20565;-61
2022/05/08 10:54:57;;;;;;;11.75;2.97;;;;;;;;;;6339460;22;20223;-62
2022/05/08 10:57:34;;;;;;;8.88;2.30;;;;;;;;;;6339779;22;20223;-61
2022/05/08 11:00:00;;;;;;;8.25;2.50;;;;;;;;;;6339213;22;20145;-62
2022/05/08 11:02:44;;;;;;;10.68;2.78;;;;;;;;;;6339404;22;20213;-61
2022/05/08 11:05:11;;;;;;;9.00;2.67;;;;;;;;;;6337669;22;20199;-61
2022/05/08 11:07:47;;;;;;;10.20;2.22;;;;;;;;;;6338990;22;20433;-61
2022/05/08 11:10:16;;;;;;;10.23;2.15;;;;;;;;;;6338906;22;20126;-61
2022/05/08 11:13:10;;;;;;;9.50;2.42;;;;;;;;;;6339386;22;20143;-62
2022/05/08 11:15:36;;;;;;;8.82;2.50;;;;;;;;;;6338856;22;20612;-62
2022/05/08 11:18:08;;;;;;;10.25;2.28;;;;;;;;;;6340997;22;20202;-62
2022/05/08 11:20:38;;;;;;;7.47;2.47;;;;;;;;;;6340981;22;20514;-61
2022/05/08 11:23:07;;;;;;;8.23;2.28;;;;;;;;;;6340897;22;20139;-62
2022/05/08 11:25:34;;;;;;;7.30;1.98;;;;;;;;;;6340761;22;20138;-61
2022/05/08 11:28:00;;;;;;;7.07;2.28;;;;;;;;;;6341028;22;20146;-62
2022/05/08 11:30:36;;;;;;;7.32;2.25;;;;;;;;;;6341026;22;20138;-60
2022/05/08 11:36:06;;;;;;;8.77;2.05;;;;;;;;;;6340810;22;20172;-60
2022/05/08 11:38:51;;;;;;;8.75;1.80;;;;;;;;;;6341359;22;20126;-61
2022/05/08 11:41:18;;;;;;;7.35;2.25;;;;;;;;;;6341085;22;20436;-60
2022/05/08 11:44:03;;;;;;;8.77;2.20;;;;;;;;;;6341376;22;20148;-61
2022/05/08 11:46:34;;;;;;;11.07;2.15;;;;;;;;;;6341045;22;20145;-60
2022/05/08 11:49:00;;;;;;;6.70;2.00;;;;;;;;;;6341432;22;20170;-60
2022/05/08 11:51:37;;;;;;;5.22;1.75;;;;;;;;;;6341048;22;20142;-61
2022/05/08 11:54:03;;;;;;;8.27;2.15;;;;;;;;;;6341344;22;20193;-61
2022/05/08 11:56:33;;;;;;;9.02;2.28;;;;;;;;;;6340892;22;20134;-61
2022/05/08 11:59:00;;;;;;;10.52;2.42;;;;;;;;;;6341185;22;20142;-60
2022/05/08 12:01:35;;;;;;;7.75;2.05;;;;;;;;;;6340645;22;20144;-60
2022/05/08 12:04:20;;;;;;;9.20;2.05;;;;;;;;;;6341218;22;20146;-61
2022/05/08 12:06:55;;;;;;;6.15;3.00;;;;;;;;;;6340974;22;20476;-61
2022/05/08 12:09:21;;;;;;;9.27;2.40;;;;;;;;;;6340833;22;20142;-61
2022/05/08 12:11:47;;;;;;;3.58;1.70;;;;;;;;;;6340644;22;20142;-61
2022/05/08 12:14:13;;;;;;;5.22;2.28;;;;;;;;;;6340583;22;20706;-61
2022/05/08 12:16:39;;;;;;;8.45;2.08;;;;;;;;;;6340463;22;20237;-60
2022/05/08 12:19:12;;;;;;;5.40;1.85;;;;;;;;;;6340289;22;20138;-61
2022/05/08 12:21:39;;;;;;;6.20;2.28;;;;;;;;;;6340340;22;20134;-61
2022/05/08 12:24:08;;;;;;;3.63;1.42;;;;;;;;;;6340347;22;20165;-61
2022/05/08 12:26:34;;;;;;;3.88;1.88;;;;;;;;;;6340160;22;20153;-62
2022/05/08 12:29:00;;;;;;;6.57;1.65;;;;;;;;;;6340298;22;20537;-61
2022/05/08 12:31:26;;;;;;;2.80;1.25;;;;;;;;;;6340084;22;20161;-62
2022/05/08 12:33:52;;;;;;;5.40;1.90;;;;;;;;;;6339932;22;20565;-61
2022/05/08 12:36:18;;;;;;;8.75;2.40;;;;;;;;;;6339875;22;20134;-62
2022/05/08 12:38:44;;;;;;;5.88;1.58;;;;;;;;;;6340007;22;20280;-62
2022/05/08 12:41:12;;;;;;;4.80;1.60;;;;;;;;;;6340331;22;20225;-62
2022/05/08 12:43:38;;;;;;;5.22;1.80;;;;;;;;;;6340222;22;20139;-62
2022/05/08 12:46:04;;;;;;;6.43;1.83;;;;;;;;;;6339964;22;20399;-62
2022/05/08 12:48:30;;;;;;;3.90;1.45;;;;;;;;;;6340085;22;20203;-62
2022/05/08 12:50:56;;;;;;;4.70;1.67;;;;;;;;;;6340089;22;20206;-62
2022/05/08 12:53:22;;;;;;;6.57;1.40;;;;;;;;;;6340209;22;20234;-62
2022/05/08 12:55:48;;;;;;;3.40;1.42;;;;;;;;;;6340043;22;20219;-62
2022/05/08 13:00:58;;;;;;;8.55;1.67;;;;;;;;;;6339794;22;20138;-62
2022/05/08 13:03:25;;;;;;;5.82;1.90;;;;;;;;;;6339672;22;20138;-62
2022/05/08 13:05:51;;;;;;;6.05;1.38;;;;;;;;;;6339600;22;20138;-62
2022/05/08 13:08:17;;;;;;;2.78;1.33;;;;;;;;;;6340007;22;20440;-62
2022/05/08 13:10:44;;;;;;;3.83;1.42;;;;;;;;;;6340038;22;20153;-62
2022/05/08 13:13:10;;;;;;;6.28;1.50;;;;;;;;;;6339733;22;20558;-62
2022/05/08 13:15:37;;;;;;;7.93;2.20;;;;;;;;;;6340040;22;20169;-62
2022/05/08 13:18:02;;;;;;;5.72;1.92;;;;;;;;;;6339778;22;20210;-62
2022/05/08 13:20:28;;;;;;;6.55;1.80;;;;;;;;;;6339821;22;20161;-62
2022/05/08 13:22:54;;;;;;;6.05;1.83;;;;;;;;;;6340185;22;20150;-62
2022/05/08 13:25:20;;;;;;;2.80;1.50;;;;;;;;;;6339867;22;20142;-62
2022/05/08 13:27:46;;;;;;;6.55;1.50;;;;;;;;;;6339847;22;20157;-62
2022/05/08 13:30:12;;;;;;;2.97;1.50;;;;;;;;;;6339722;22;20153;-62
2022/05/08 13:32:39;;;;;;;3.85;1.23;;;;;;;;;;6339587;22;20203;-62
2022/05/08 13:35:05;;;;;;;3.78;1.67;;;;;;;;;;6339675;22;20165;-62
2022/05/08 13:37:31;;;;;;;3.92;1.48;;;;;;;;;;6339580;22;20610;-62
2022/05/08 13:40:00;;;;;;;5.65;1.40;;;;;;;;;;6339647;22;20142;-62
2022/05/08 13:42:26;;;;;;;6.68;2.03;;;;;;;;;;6339360;22;20177;-62
2022/05/08 13:44:55;;;;;;;4.53;1.60;;;;;;;;;;6339606;22;20142;-62
2022/05/08 13:47:21;;;;;;;5.78;1.60;;;;;;;;;;6339529;22;20221;-62
2022/05/08 13:49:47;;;;;;;6.13;1.52;;;;;;;;;;6339714;22;20149;-62
2022/05/08 13:52:13;;;;;;;6.10;1.83;;;;;;;;;;6339501;22;20142;-61
2022/05/08 13:54:42;;;;;;;4.60;1.23;;;;;;;;;;6339812;22;20168;-62
2022/05/08 13:57:08;;;;;;;5.72;1.40;;;;;;;;;;6339740;22;20152;-62
2022/05/08 13:59:34;;;;;;;4.43;1.55;;;;;;;;;;6339816;22;20138;-61
2022/05/08 14:02:00;;;;;;;5.43;1.50;;;;;;;;;;6339370;22;20133;-62
2022/05/08 14:04:26;;;;;;;4.38;1.48;;;;;;;;;;6339538;22;20165;-62
2022/05/08 14:06:52;;;;;;;5.68;1.50;;;;;;;;;;6339486;22;20175;-62
2022/05/08 14:09:18;;;;;;;4.57;1.50;;;;;;;;;;6339527;22;20138;-61
2022/05/08 14:11:44;;;;;;;4.38;1.45;;;;;;;;;;6339491;22;20479;-61
2022/05/08 14:14:10;;;;;;;5.72;1.52;;;;;;;;;;6339411;22;20165;-62
2022/05/08 14:16:36;;;;;;;3.10;1.38;;;;;;;;;;6340315;22;20138;-61
2022/05/08 14:19:01;;;;;;;4.25;2.05;;;;;;;;;;6339705;22;20190;-61
2022/05/08 14:21:27;;;;;;;3.40;1.40;;;;;;;;;;6339511;22;20545;-61
2022/05/08 14:23:53;;;;;;;2.13;1.17;;;;;;;;;;6339650;22;20150;-62
2022/05/08 14:26:19;;;;;;;4.57;1.33;;;;;;;;;;6349350;22;20148;-62
2022/05/08 14:28:45;;;;;;;3.53;1.50;;;;;;;;;;6342118;22;20494;-62
2022/05/08 14:36:40;;;;;;;4.32;1.30;;;;;;;;;;6339265;22;20137;-63
2022/05/08 14:39:06;;;;;;;3.03;1.13;;;;;;;;;;6339162;22;20138;-63
2022/05/08 14:41:32;;;;;;;3.30;1.05;;;;;;;;;;6339679;22;20145;-61
2022/05/08 14:43:58;;;;;;;4.13;1.00;;;;;;;;;;6339217;22;20145;-62
2022/05/08 14:46:24;;;;;;;3.33;1.25;;;;;;;;;;6339549;22;20152;-63
2022/05/08 14:48:50;;;;;;;4.03;1.15;;;;;;;;;;6339204;22;20220;-63
2022/05/08 14:51:16;;;;;;;4.60;1.10;;;;;;;;;;6340519;22;20177;-63
2022/05/08 14:53:43;;;;;;;2.72;1.48;;;;;;;;;;6340916;22;20482;-63
2022/05/08 14:56:12;;;;;;;3.58;1.35;;;;;;;;;;6341340;22;20140;-63
2022/05/08 14:58:38;;;;;;;3.65;1.30;;;;;;;;;;6341493;22;20221;-62
2022/05/08 15:01:04;;;;;;;4.00;1.20;;;;;;;;;;6342408;22;20200;-61
2022/05/08 15:03:30;;;;;;;4.43;1.30;;;;;;;;;;6342160;22;20133;-62
2022/05/08 15:05:56;;;;;;;3.80;1.02;;;;;;;;;;6342274;22;20169;-62
2022/05/08 15:08:22;;;;;;;2.22;0.88;;;;;;;;;;6341854;22;20137;-63
2022/05/08 15:10:49;;;;;;;3.30;1.35;;;;;;;;;;6341802;22;20219;-63
2022/05/08 15:13:15;;;;;;;3.60;1.38;;;;;;;;;;6341870;22;20161;-63
2022/05/08 15:15:41;;;;;;;4.55;1.40;;;;;;;;;;6342039;22;20248;-63
2022/05/08 15:20:55;;;;;;;4.22;1.40;;;;;;;;;;6342070;22;20141;-62